sensor_id;sensor_type;location;lat;lon;timestamp;P1;durP1;ratioP1;P2;durP2;ratioP2
55216;SDS011;41086;46.736;15.666;2023-04-29T00:00:03;22.63;;;17.67;;
55216;SDS011;41086;46.736;15.666;2023-04-29T00:02:38;28.65;;;19.80;;
55216;SDS011;41086;46.736;15.666;2023-04-29T00:05:05;26.48;;;18.92;;
55216;SDS011;41086;46.736;15.666;2023-04-29T00:07:33;27.40;;;19.08;;
55216;SDS011;41086;46.736;15.666;2023-04-29T00:09:59;25.25;;;18.75;;
55216;SDS011;41086;46.736;15.666;2023-04-29T00:12:26;29.08;;;20.23;;
55216;SDS011;41086;46.736;15.666;2023-04-29T00:14:53;32.15;;;19.65;;
55216;SDS011;41086;46.736;15.666;2023-04-29T00:17:20;28.30;;;20.05;;
55216;SDS011;41086;46.736;15.666;2023-04-29T00:19:47;33.20;;;19.33;;
55216;SDS011;41086;46.736;15.666;2023-04-29T00:22:13;27.60;;;19.75;;
55216;SDS011;41086;46.736;15.666;2023-04-29T00:24:40;27.75;;;19.00;;
55216;SDS011;41086;46.736;15.666;2023-04-29T00:27:06;24.73;;;19.25;;
55216;SDS011;41086;46.736;15.666;2023-04-29T00:29:33;25.95;;;17.90;;
55216;SDS011;41086;46.736;15.666;2023-04-29T00:32:00;24.00;;;18.17;;
55216;SDS011;41086;46.736;15.666;2023-04-29T00:34:26;27.02;;;19.20;;
55216;SDS011;41086;46.736;15.666;2023-04-29T00:36:53;28.98;;;18.77;;
55216;SDS011;41086;46.736;15.666;2023-04-29T00:39:20;28.13;;;19.52;;
55216;SDS011;41086;46.736;15.666;2023-04-29T00:41:47;25.25;;;19.75;;
55216;SDS011;41086;46.736;15.666;2023-04-29T00:44:13;28.75;;;20.40;;
55216;SDS011;41086;46.736;15.666;2023-04-29T00:46:40;27.90;;;20.83;;
55216;SDS011;41086;46.736;15.666;2023-04-29T00:49:07;28.67;;;21.00;;
55216;SDS011;41086;46.736;15.666;2023-04-29T00:51:34;28.92;;;19.95;;
55216;SDS011;41086;46.736;15.666;2023-04-29T00:54:03;29.15;;;20.80;;
55216;SDS011;41086;46.736;15.666;2023-04-29T00:56:31;28.23;;;18.42;;
55216;SDS011;41086;46.736;15.666;2023-04-29T00:58:59;27.17;;;19.35;;
55216;SDS011;41086;46.736;15.666;2023-04-29T01:01:30;28.35;;;19.67;;
55216;SDS011;41086;46.736;15.666;2023-04-29T01:03:57;27.27;;;19.77;;
55216;SDS011;41086;46.736;15.666;2023-04-29T01:09:43;27.40;;;20.13;;
55216;SDS011;41086;46.736;15.666;2023-04-29T01:12:07;29.15;;;21.98;;
55216;SDS011;41086;46.736;15.666;2023-04-29T01:14:36;33.88;;;21.48;;
55216;SDS011;41086;46.736;15.666;2023-04-29T01:17:08;30.02;;;18.65;;
55216;SDS011;41086;46.736;15.666;2023-04-29T01:19:43;27.13;;;17.35;;
55216;SDS011;41086;46.736;15.666;2023-04-29T01:22:11;27.27;;;18.67;;
55216;SDS011;41086;46.736;15.666;2023-04-29T01:24:43;29.33;;;18.45;;
55216;SDS011;41086;46.736;15.666;2023-04-29T01:27:16;26.20;;;18.42;;
55216;SDS011;41086;46.736;15.666;2023-04-29T01:30:06;31.38;;;16.25;;
55216;SDS011;41086;46.736;15.666;2023-04-29T01:32:48;28.30;;;18.75;;
55216;SDS011;41086;46.736;15.666;2023-04-29T01:35:21;29.10;;;20.45;;
55216;SDS011;41086;46.736;15.666;2023-04-29T01:38:15;32.75;;;22.52;;
55216;SDS011;41086;46.736;15.666;2023-04-29T01:40:44;30.63;;;20.92;;
55216;SDS011;41086;46.736;15.666;2023-04-29T01:43:19;35.72;;;21.65;;
55216;SDS011;41086;46.736;15.666;2023-04-29T01:45:48;36.35;;;23.20;;
55216;SDS011;41086;46.736;15.666;2023-04-29T01:48:16;32.35;;;22.08;;
55216;SDS011;41086;46.736;15.666;2023-04-29T01:50:43;34.35;;;23.75;;
55216;SDS011;41086;46.736;15.666;2023-04-29T01:53:11;33.65;;;24.70;;
55216;SDS011;41086;46.736;15.666;2023-04-29T01:55:38;32.10;;;22.60;;
55216;SDS011;41086;46.736;15.666;2023-04-29T01:58:15;34.80;;;23.15;;
55216;SDS011;41086;46.736;15.666;2023-04-29T02:00:53;30.30;;;22.77;;
55216;SDS011;41086;46.736;15.666;2023-04-29T02:03:20;33.78;;;21.95;;
55216;SDS011;41086;46.736;15.666;2023-04-29T02:05:50;35.15;;;23.60;;
55216;SDS011;41086;46.736;15.666;2023-04-29T02:08:17;32.70;;;23.40;;
55216;SDS011;41086;46.736;15.666;2023-04-29T02:10:55;33.90;;;23.70;;
55216;SDS011;41086;46.736;15.666;2023-04-29T02:13:37;40.20;;;23.83;;
55216;SDS011;41086;46.736;15.666;2023-04-29T02:18:31;36.78;;;24.02;;
55216;SDS011;41086;46.736;15.666;2023-04-29T02:21:00;34.65;;;25.48;;
55216;SDS011;41086;46.736;15.666;2023-04-29T02:23:30;36.92;;;23.33;;
55216;SDS011;41086;46.736;15.666;2023-04-29T02:25:56;39.55;;;24.98;;
55216;SDS011;41086;46.736;15.666;2023-04-29T02:28:23;31.92;;;24.10;;
55216;SDS011;41086;46.736;15.666;2023-04-29T02:30:50;39.03;;;26.63;;
55216;SDS011;41086;46.736;15.666;2023-04-29T02:33:17;30.73;;;20.85;;
55216;SDS011;41086;46.736;15.666;2023-04-29T02:35:46;43.42;;;25.65;;
55216;SDS011;41086;46.736;15.666;2023-04-29T02:38:14;47.70;;;25.27;;
55216;SDS011;41086;46.736;15.666;2023-04-29T02:40:42;41.55;;;26.25;;
55216;SDS011;41086;46.736;15.666;2023-04-29T02:43:09;37.40;;;24.73;;
55216;SDS011;41086;46.736;15.666;2023-04-29T02:45:36;36.13;;;25.38;;
55216;SDS011;41086;46.736;15.666;2023-04-29T02:48:04;33.22;;;23.20;;
55216;SDS011;41086;46.736;15.666;2023-04-29T02:50:31;34.17;;;19.98;;
55216;SDS011;41086;46.736;15.666;2023-04-29T02:52:59;33.97;;;21.70;;
55216;SDS011;41086;46.736;15.666;2023-04-29T02:55:25;30.17;;;20.42;;
55216;SDS011;41086;46.736;15.666;2023-04-29T02:57:55;28.48;;;19.23;;
55216;SDS011;41086;46.736;15.666;2023-04-29T03:00:21;29.65;;;20.92;;
55216;SDS011;41086;46.736;15.666;2023-04-29T03:02:49;37.33;;;21.13;;
55216;SDS011;41086;46.736;15.666;2023-04-29T03:05:15;34.33;;;22.80;;
55216;SDS011;41086;46.736;15.666;2023-04-29T03:07:42;36.17;;;23.40;;
55216;SDS011;41086;46.736;15.666;2023-04-29T03:10:09;36.35;;;23.80;;
55216;SDS011;41086;46.736;15.666;2023-04-29T03:12:37;39.78;;;25.35;;
55216;SDS011;41086;46.736;15.666;2023-04-29T03:15:08;39.97;;;26.90;;
55216;SDS011;41086;46.736;15.666;2023-04-29T03:17:36;38.03;;;25.98;;
55216;SDS011;41086;46.736;15.666;2023-04-29T03:20:03;35.67;;;23.85;;
55216;SDS011;41086;46.736;15.666;2023-04-29T03:24:56;35.05;;;24.85;;
55216;SDS011;41086;46.736;15.666;2023-04-29T03:27:23;40.22;;;23.85;;
55216;SDS011;41086;46.736;15.666;2023-04-29T03:29:50;34.28;;;23.35;;
55216;SDS011;41086;46.736;15.666;2023-04-29T03:34:44;30.67;;;20.90;;
55216;SDS011;41086;46.736;15.666;2023-04-29T03:37:31;32.22;;;21.20;;
55216;SDS011;41086;46.736;15.666;2023-04-29T03:40:12;32.83;;;21.83;;
55216;SDS011;41086;46.736;15.666;2023-04-29T03:42:40;36.05;;;24.13;;
55216;SDS011;41086;46.736;15.666;2023-04-29T03:45:07;33.08;;;20.25;;
55216;SDS011;41086;46.736;15.666;2023-04-29T03:47:33;29.85;;;21.15;;
55216;SDS011;41086;46.736;15.666;2023-04-29T03:50:01;34.83;;;21.48;;
55216;SDS011;41086;46.736;15.666;2023-04-29T03:52:28;36.65;;;22.30;;
55216;SDS011;41086;46.736;15.666;2023-04-29T03:55:00;37.65;;;21.08;;
55216;SDS011;41086;46.736;15.666;2023-04-29T03:57:29;25.42;;;17.23;;
55216;SDS011;41086;46.736;15.666;2023-04-29T03:59:56;30.48;;;18.52;;
55216;SDS011;41086;46.736;15.666;2023-04-29T04:02:22;29.70;;;18.48;;
55216;SDS011;41086;46.736;15.666;2023-04-29T04:04:50;30.70;;;17.75;;
55216;SDS011;41086;46.736;15.666;2023-04-29T04:07:17;28.73;;;19.58;;
55216;SDS011;41086;46.736;15.666;2023-04-29T04:10:06;29.83;;;20.40;;
55216;SDS011;41086;46.736;15.666;2023-04-29T04:12:33;29.10;;;19.85;;
55216;SDS011;41086;46.736;15.666;2023-04-29T04:15:00;26.50;;;16.38;;
55216;SDS011;41086;46.736;15.666;2023-04-29T04:17:26;32.30;;;19.35;;
55216;SDS011;41086;46.736;15.666;2023-04-29T04:19:53;31.00;;;20.10;;
55216;SDS011;41086;46.736;15.666;2023-04-29T04:22:20;29.95;;;19.75;;
55216;SDS011;41086;46.736;15.666;2023-04-29T04:25:06;38.45;;;25.17;;
55216;SDS011;41086;46.736;15.666;2023-04-29T04:27:33;37.35;;;23.58;;
55216;SDS011;41086;46.736;15.666;2023-04-29T04:30:04;39.13;;;25.52;;
55216;SDS011;41086;46.736;15.666;2023-04-29T04:32:31;41.83;;;27.52;;
55216;SDS011;41086;46.736;15.666;2023-04-29T04:34:58;38.97;;;26.00;;
55216;SDS011;41086;46.736;15.666;2023-04-29T04:37:25;46.70;;;27.70;;
55216;SDS011;41086;46.736;15.666;2023-04-29T04:39:56;36.10;;;26.40;;
55216;SDS011;41086;46.736;15.666;2023-04-29T04:42:23;45.53;;;26.15;;
55216;SDS011;41086;46.736;15.666;2023-04-29T04:44:54;38.53;;;24.88;;
55216;SDS011;41086;46.736;15.666;2023-04-29T04:47:32;43.13;;;26.02;;
55216;SDS011;41086;46.736;15.666;2023-04-29T04:50:04;40.80;;;28.83;;
55216;SDS011;41086;46.736;15.666;2023-04-29T04:52:31;37.17;;;24.85;;
55216;SDS011;41086;46.736;15.666;2023-04-29T04:55:22;41.47;;;22.67;;
55216;SDS011;41086;46.736;15.666;2023-04-29T04:57:50;35.17;;;22.40;;
55216;SDS011;41086;46.736;15.666;2023-04-29T05:00:16;38.53;;;24.63;;
55216;SDS011;41086;46.736;15.666;2023-04-29T05:02:43;34.83;;;24.05;;
55216;SDS011;41086;46.736;15.666;2023-04-29T05:05:10;39.33;;;23.60;;
55216;SDS011;41086;46.736;15.666;2023-04-29T05:07:40;36.20;;;23.83;;
55216;SDS011;41086;46.736;15.666;2023-04-29T05:10:09;34.38;;;25.33;;
55216;SDS011;41086;46.736;15.666;2023-04-29T05:12:44;35.95;;;25.45;;
55216;SDS011;41086;46.736;15.666;2023-04-29T05:15:11;46.30;;;27.40;;
55216;SDS011;41086;46.736;15.666;2023-04-29T05:20:05;36.67;;;25.98;;
55216;SDS011;41086;46.736;15.666;2023-04-29T05:22:32;38.40;;;24.88;;
55216;SDS011;41086;46.736;15.666;2023-04-29T05:25:00;32.60;;;23.02;;
55216;SDS011;41086;46.736;15.666;2023-04-29T05:27:32;34.25;;;22.95;;
55216;SDS011;41086;46.736;15.666;2023-04-29T05:32:26;30.95;;;21.65;;
55216;SDS011;41086;46.736;15.666;2023-04-29T05:34:53;28.23;;;20.73;;
55216;SDS011;41086;46.736;15.666;2023-04-29T05:37:20;29.48;;;22.77;;
55216;SDS011;41086;46.736;15.666;2023-04-29T05:40:00;30.00;;;23.10;;
55216;SDS011;41086;46.736;15.666;2023-04-29T05:42:27;31.25;;;23.95;;
55216;SDS011;41086;46.736;15.666;2023-04-29T05:44:55;32.13;;;23.02;;
55216;SDS011;41086;46.736;15.666;2023-04-29T05:47:22;35.22;;;22.48;;
55216;SDS011;41086;46.736;15.666;2023-04-29T05:49:48;29.85;;;20.48;;
55216;SDS011;41086;46.736;15.666;2023-04-29T05:52:15;32.67;;;20.67;;
55216;SDS011;41086;46.736;15.666;2023-04-29T05:54:45;26.33;;;20.48;;
55216;SDS011;41086;46.736;15.666;2023-04-29T05:57:11;28.15;;;19.33;;
55216;SDS011;41086;46.736;15.666;2023-04-29T05:59:39;29.25;;;18.67;;
55216;SDS011;41086;46.736;15.666;2023-04-29T06:02:05;27.15;;;19.50;;
55216;SDS011;41086;46.736;15.666;2023-04-29T06:04:34;28.17;;;20.77;;
55216;SDS011;41086;46.736;15.666;2023-04-29T06:07:03;21.70;;;17.08;;
55216;SDS011;41086;46.736;15.666;2023-04-29T06:09:57;22.73;;;17.95;;
55216;SDS011;41086;46.736;15.666;2023-04-29T06:12:25;23.55;;;17.17;;
55216;SDS011;41086;46.736;15.666;2023-04-29T06:14:52;21.60;;;15.77;;
55216;SDS011;41086;46.736;15.666;2023-04-29T06:17:19;20.38;;;15.25;;
55216;SDS011;41086;46.736;15.666;2023-04-29T06:19:45;20.85;;;14.25;;
55216;SDS011;41086;46.736;15.666;2023-04-29T06:22:12;17.98;;;15.45;;
55216;SDS011;41086;46.736;15.666;2023-04-29T06:24:44;18.55;;;13.93;;
55216;SDS011;41086;46.736;15.666;2023-04-29T06:27:14;22.33;;;15.05;;
55216;SDS011;41086;46.736;15.666;2023-04-29T06:29:41;16.88;;;14.18;;
55216;SDS011;41086;46.736;15.666;2023-04-29T06:32:07;15.40;;;13.45;;
55216;SDS011;41086;46.736;15.666;2023-04-29T06:37:23;22.20;;;13.23;;
55216;SDS011;41086;46.736;15.666;2023-04-29T06:40:10;19.00;;;13.10;;
55216;SDS011;41086;46.736;15.666;2023-04-29T06:42:56;16.08;;;13.43;;
55216;SDS011;41086;46.736;15.666;2023-04-29T06:45:44;17.42;;;12.88;;
55216;SDS011;41086;46.736;15.666;2023-04-29T06:48:37;16.95;;;12.88;;
55216;SDS011;41086;46.736;15.666;2023-04-29T06:51:04;15.60;;;12.48;;
55216;SDS011;41086;46.736;15.666;2023-04-29T06:53:34;22.95;;;13.35;;
55216;SDS011;41086;46.736;15.666;2023-04-29T06:56:01;15.25;;;12.38;;
55216;SDS011;41086;46.736;15.666;2023-04-29T06:58:27;17.35;;;13.50;;
55216;SDS011;41086;46.736;15.666;2023-04-29T07:00:54;19.02;;;13.25;;
55216;SDS011;41086;46.736;15.666;2023-04-29T07:03:21;14.50;;;11.57;;
55216;SDS011;41086;46.736;15.666;2023-04-29T07:05:49;15.68;;;11.50;;
55216;SDS011;41086;46.736;15.666;2023-04-29T07:08:15;20.65;;;11.82;;
55216;SDS011;41086;46.736;15.666;2023-04-29T07:10:42;24.90;;;15.70;;
55216;SDS011;41086;46.736;15.666;2023-04-29T07:13:08;14.27;;;11.13;;
55216;SDS011;41086;46.736;15.666;2023-04-29T07:15:36;17.35;;;10.93;;
55216;SDS011;41086;46.736;15.666;2023-04-29T07:18:03;14.43;;;12.18;;
55216;SDS011;41086;46.736;15.666;2023-04-29T07:20:30;15.48;;;10.60;;
55216;SDS011;41086;46.736;15.666;2023-04-29T07:22:57;15.18;;;11.65;;
55216;SDS011;41086;46.736;15.666;2023-04-29T07:25:27;16.20;;;11.77;;
55216;SDS011;41086;46.736;15.666;2023-04-29T07:27:55;14.32;;;10.70;;
55216;SDS011;41086;46.736;15.666;2023-04-29T07:30:23;14.20;;;11.20;;
55216;SDS011;41086;46.736;15.666;2023-04-29T07:32:50;13.88;;;10.18;;
55216;SDS011;41086;46.736;15.666;2023-04-29T07:37:44;14.52;;;11.88;;
55216;SDS011;41086;46.736;15.666;2023-04-29T07:40:11;14.20;;;11.73;;
55216;SDS011;41086;46.736;15.666;2023-04-29T07:42:38;14.50;;;11.00;;
55216;SDS011;41086;46.736;15.666;2023-04-29T07:47:32;18.00;;;12.43;;
55216;SDS011;41086;46.736;15.666;2023-04-29T07:49:59;17.17;;;11.95;;
55216;SDS011;41086;46.736;15.666;2023-04-29T07:52:25;19.45;;;13.00;;
55216;SDS011;41086;46.736;15.666;2023-04-29T07:54:52;16.60;;;13.05;;
55216;SDS011;41086;46.736;15.666;2023-04-29T07:57:21;17.02;;;13.13;;
55216;SDS011;41086;46.736;15.666;2023-04-29T07:59:53;21.10;;;11.55;;
55216;SDS011;41086;46.736;15.666;2023-04-29T08:02:20;15.65;;;12.27;;
55216;SDS011;41086;46.736;15.666;2023-04-29T08:04:48;15.73;;;11.45;;
55216;SDS011;41086;46.736;15.666;2023-04-29T08:07:17;18.20;;;12.65;;
55216;SDS011;41086;46.736;15.666;2023-04-29T08:09:43;15.23;;;12.45;;
55216;SDS011;41086;46.736;15.666;2023-04-29T08:12:10;17.65;;;11.73;;
55216;SDS011;41086;46.736;15.666;2023-04-29T08:14:39;17.38;;;11.82;;
55216;SDS011;41086;46.736;15.666;2023-04-29T08:17:05;15.52;;;10.20;;
55216;SDS011;41086;46.736;15.666;2023-04-29T08:19:33;17.17;;;10.75;;
55216;SDS011;41086;46.736;15.666;2023-04-29T08:22:00;13.23;;;10.73;;
55216;SDS011;41086;46.736;15.666;2023-04-29T08:24:26;16.02;;;10.75;;
55216;SDS011;41086;46.736;15.666;2023-04-29T08:26:54;13.88;;;10.75;;
55216;SDS011;41086;46.736;15.666;2023-04-29T08:29:21;12.63;;;10.32;;
55216;SDS011;41086;46.736;15.666;2023-04-29T08:31:48;12.32;;;9.43;;
55216;SDS011;41086;46.736;15.666;2023-04-29T08:34:15;10.60;;;9.30;;
55216;SDS011;41086;46.736;15.666;2023-04-29T08:36:42;16.38;;;9.25;;
55216;SDS011;41086;46.736;15.666;2023-04-29T08:39:08;10.95;;;9.10;;
55216;SDS011;41086;46.736;15.666;2023-04-29T08:41:35;11.55;;;8.80;;
55216;SDS011;41086;46.736;15.666;2023-04-29T08:46:28;10.10;;;8.18;;
55216;SDS011;41086;46.736;15.666;2023-04-29T08:51:23;9.70;;;7.00;;
55216;SDS011;41086;46.736;15.666;2023-04-29T08:56:16;9.88;;;6.78;;
55216;SDS011;41086;46.736;15.666;2023-04-29T08:58:46;9.32;;;6.22;;
55216;SDS011;41086;46.736;15.666;2023-04-29T09:01:13;8.23;;;4.85;;
55216;SDS011;41086;46.736;15.666;2023-04-29T09:06:08;7.47;;;5.65;;
55216;SDS011;41086;46.736;15.666;2023-04-29T09:08:35;9.57;;;6.25;;
55216;SDS011;41086;46.736;15.666;2023-04-29T09:11:03;8.07;;;5.90;;
55216;SDS011;41086;46.736;15.666;2023-04-29T09:13:31;18.92;;;13.65;;
55216;SDS011;41086;46.736;15.666;2023-04-29T09:15:57;7.40;;;4.78;;
55216;SDS011;41086;46.736;15.666;2023-04-29T09:18:40;9.60;;;5.72;;
55216;SDS011;41086;46.736;15.666;2023-04-29T09:21:13;8.60;;;5.03;;
55216;SDS011;41086;46.736;15.666;2023-04-29T09:23:40;7.63;;;5.22;;
55216;SDS011;41086;46.736;15.666;2023-04-29T09:26:07;6.90;;;4.93;;
55216;SDS011;41086;46.736;15.666;2023-04-29T09:28:33;6.63;;;4.70;;
55216;SDS011;41086;46.736;15.666;2023-04-29T09:31:03;6.45;;;4.75;;
55216;SDS011;41086;46.736;15.666;2023-04-29T09:33:31;8.25;;;5.07;;
55216;SDS011;41086;46.736;15.666;2023-04-29T09:36:15;8.73;;;5.93;;
55216;SDS011;41086;46.736;15.666;2023-04-29T09:38:53;6.47;;;4.70;;
55216;SDS011;41086;46.736;15.666;2023-04-29T09:41:23;6.53;;;4.75;;
55216;SDS011;41086;46.736;15.666;2023-04-29T09:44:02;7.25;;;5.40;;
55216;SDS011;41086;46.736;15.666;2023-04-29T09:46:34;7.13;;;4.18;;
55216;SDS011;41086;46.736;15.666;2023-04-29T09:49:02;7.68;;;5.10;;
55216;SDS011;41086;46.736;15.666;2023-04-29T09:51:32;7.47;;;4.47;;
55216;SDS011;41086;46.736;15.666;2023-04-29T09:54:00;6.88;;;4.45;;
55216;SDS011;41086;46.736;15.666;2023-04-29T09:56:49;13.07;;;6.03;;
55216;SDS011;41086;46.736;15.666;2023-04-29T09:59:17;10.68;;;6.03;;
55216;SDS011;41086;46.736;15.666;2023-04-29T10:01:48;8.68;;;5.07;;
55216;SDS011;41086;46.736;15.666;2023-04-29T10:04:16;6.70;;;4.68;;
55216;SDS011;41086;46.736;15.666;2023-04-29T10:06:44;6.57;;;4.32;;
55216;SDS011;41086;46.736;15.666;2023-04-29T10:09:14;8.15;;;4.63;;
55216;SDS011;41086;46.736;15.666;2023-04-29T10:11:44;5.30;;;4.20;;
55216;SDS011;41086;46.736;15.666;2023-04-29T10:14:12;4.93;;;4.20;;
55216;SDS011;41086;46.736;15.666;2023-04-29T10:16:44;7.13;;;4.60;;
55216;SDS011;41086;46.736;15.666;2023-04-29T10:19:13;6.40;;;4.25;;
55216;SDS011;41086;46.736;15.666;2023-04-29T10:21:41;6.53;;;4.40;;
55216;SDS011;41086;46.736;15.666;2023-04-29T10:24:07;5.60;;;3.88;;
55216;SDS011;41086;46.736;15.666;2023-04-29T10:26:35;5.72;;;4.13;;
55216;SDS011;41086;46.736;15.666;2023-04-29T10:29:04;7.95;;;4.35;;
55216;SDS011;41086;46.736;15.666;2023-04-29T10:31:31;7.30;;;3.78;;
55216;SDS011;41086;46.736;15.666;2023-04-29T10:33:59;9.02;;;3.85;;
55216;SDS011;41086;46.736;15.666;2023-04-29T10:36:27;5.95;;;4.25;;
55216;SDS011;41086;46.736;15.666;2023-04-29T10:38:59;5.05;;;3.67;;
55216;SDS011;41086;46.736;15.666;2023-04-29T10:41:29;7.20;;;3.40;;
55216;SDS011;41086;46.736;15.666;2023-04-29T10:43:57;8.05;;;3.78;;
55216;SDS011;41086;46.736;15.666;2023-04-29T10:46:25;6.95;;;3.70;;
55216;SDS011;41086;46.736;15.666;2023-04-29T10:48:56;6.28;;;3.63;;
55216;SDS011;41086;46.736;15.666;2023-04-29T10:54:14;5.43;;;3.28;;
55216;SDS011;41086;46.736;15.666;2023-04-29T11:04:10;4.63;;;2.67;;
55216;SDS011;41086;46.736;15.666;2023-04-29T11:06:38;3.75;;;2.75;;
55216;SDS011;41086;46.736;15.666;2023-04-29T11:09:13;6.43;;;2.75;;
55216;SDS011;41086;46.736;15.666;2023-04-29T11:14:08;7.13;;;2.97;;
55216;SDS011;41086;46.736;15.666;2023-04-29T11:16:37;4.25;;;2.67;;
55216;SDS011;41086;46.736;15.666;2023-04-29T11:19:06;4.65;;;2.10;;
55216;SDS011;41086;46.736;15.666;2023-04-29T11:21:33;5.40;;;2.45;;
55216;SDS011;41086;46.736;15.666;2023-04-29T11:24:00;3.50;;;2.17;;
55216;SDS011;41086;46.736;15.666;2023-04-29T11:26:27;3.17;;;1.63;;
55216;SDS011;41086;46.736;15.666;2023-04-29T11:28:55;3.70;;;2.20;;
55216;SDS011;41086;46.736;15.666;2023-04-29T11:31:25;3.20;;;1.58;;
55216;SDS011;41086;46.736;15.666;2023-04-29T11:33:54;2.08;;;1.50;;
55216;SDS011;41086;46.736;15.666;2023-04-29T11:38:47;2.67;;;1.58;;
55216;SDS011;41086;46.736;15.666;2023-04-29T11:41:15;3.92;;;1.42;;
55216;SDS011;41086;46.736;15.666;2023-04-29T11:43:44;3.47;;;1.65;;
55216;SDS011;41086;46.736;15.666;2023-04-29T11:46:11;4.15;;;1.65;;
55216;SDS011;41086;46.736;15.666;2023-04-29T11:48:45;5.50;;;1.60;;
55216;SDS011;41086;46.736;15.666;2023-04-29T11:51:16;2.10;;;1.13;;
55216;SDS011;41086;46.736;15.666;2023-04-29T11:53:43;2.72;;;1.50;;
55216;SDS011;41086;46.736;15.666;2023-04-29T11:56:10;2.20;;;1.10;;
55216;SDS011;41086;46.736;15.666;2023-04-29T11:58:36;1.30;;;1.00;;
55216;SDS011;41086;46.736;15.666;2023-04-29T12:01:03;1.92;;;1.15;;
55216;SDS011;41086;46.736;15.666;2023-04-29T12:03:31;1.52;;;1.02;;
55216;SDS011;41086;46.736;15.666;2023-04-29T12:05:58;3.53;;;1.20;;
55216;SDS011;41086;46.736;15.666;2023-04-29T12:08:26;2.42;;;1.55;;
55216;SDS011;41086;46.736;15.666;2023-04-29T12:10:53;2.42;;;1.30;;
55216;SDS011;41086;46.736;15.666;2023-04-29T12:13:22;1.58;;;0.95;;
55216;SDS011;41086;46.736;15.666;2023-04-29T12:15:49;2.35;;;1.05;;
55216;SDS011;41086;46.736;15.666;2023-04-29T12:18:17;1.52;;;1.10;;
55216;SDS011;41086;46.736;15.666;2023-04-29T12:20:44;1.90;;;1.02;;
55216;SDS011;41086;46.736;15.666;2023-04-29T12:23:14;3.28;;;2.55;;
55216;SDS011;41086;46.736;15.666;2023-04-29T12:25:41;2.05;;;1.27;;
55216;SDS011;41086;46.736;15.666;2023-04-29T12:28:14;2.42;;;1.73;;
55216;SDS011;41086;46.736;15.666;2023-04-29T12:30:50;1.77;;;0.80;;
55216;SDS011;41086;46.736;15.666;2023-04-29T12:33:21;1.98;;;1.27;;
55216;SDS011;41086;46.736;15.666;2023-04-29T12:35:49;1.60;;;0.95;;
55216;SDS011;41086;46.736;15.666;2023-04-29T12:38:19;1.52;;;0.90;;
55216;SDS011;41086;46.736;15.666;2023-04-29T12:40:46;1.67;;;1.00;;
55216;SDS011;41086;46.736;15.666;2023-04-29T12:43:13;2.20;;;1.13;;
55216;SDS011;41086;46.736;15.666;2023-04-29T12:45:40;1.70;;;0.85;;
55216;SDS011;41086;46.736;15.666;2023-04-29T12:48:09;2.33;;;1.08;;
55216;SDS011;41086;46.736;15.666;2023-04-29T12:50:51;1.30;;;0.88;;
55216;SDS011;41086;46.736;15.666;2023-04-29T12:53:18;1.55;;;0.90;;
55216;SDS011;41086;46.736;15.666;2023-04-29T12:55:45;1.25;;;0.77;;
55216;SDS011;41086;46.736;15.666;2023-04-29T12:58:11;1.52;;;0.90;;
55216;SDS011;41086;46.736;15.666;2023-04-29T13:03:04;1.63;;;0.98;;
55216;SDS011;41086;46.736;15.666;2023-04-29T13:05:32;2.47;;;0.80;;
55216;SDS011;41086;46.736;15.666;2023-04-29T13:10:25;1.63;;;0.80;;
55216;SDS011;41086;46.736;15.666;2023-04-29T13:12:51;2.85;;;1.00;;
55216;SDS011;41086;46.736;15.666;2023-04-29T13:17:44;2.28;;;1.00;;
55216;SDS011;41086;46.736;15.666;2023-04-29T13:20:11;2.05;;;0.93;;
55216;SDS011;41086;46.736;15.666;2023-04-29T13:22:38;1.27;;;0.80;;
55216;SDS011;41086;46.736;15.666;2023-04-29T13:27:31;1.33;;;0.82;;
55216;SDS011;41086;46.736;15.666;2023-04-29T13:29:58;1.75;;;1.20;;
55216;SDS011;41086;46.736;15.666;2023-04-29T13:32:24;2.03;;;1.13;;
55216;SDS011;41086;46.736;15.666;2023-04-29T13:34:51;1.58;;;0.80;;
55216;SDS011;41086;46.736;15.666;2023-04-29T13:37:18;1.30;;;0.73;;
55216;SDS011;41086;46.736;15.666;2023-04-29T13:39:45;2.75;;;0.80;;
55216;SDS011;41086;46.736;15.666;2023-04-29T13:42:13;1.23;;;0.85;;
55216;SDS011;41086;46.736;15.666;2023-04-29T13:44:41;2.22;;;1.10;;
55216;SDS011;41086;46.736;15.666;2023-04-29T13:47:17;1.43;;;0.90;;
55216;SDS011;41086;46.736;15.666;2023-04-29T13:49:51;1.77;;;1.00;;
55216;SDS011;41086;46.736;15.666;2023-04-29T13:52:21;2.10;;;0.98;;
55216;SDS011;41086;46.736;15.666;2023-04-29T13:54:50;1.80;;;0.98;;
55216;SDS011;41086;46.736;15.666;2023-04-29T13:57:37;2.03;;;1.10;;
55216;SDS011;41086;46.736;15.666;2023-04-29T14:00:23;2.50;;;1.10;;
55216;SDS011;41086;46.736;15.666;2023-04-29T14:03:10;7.93;;;1.30;;
55216;SDS011;41086;46.736;15.666;2023-04-29T14:05:36;2.00;;;0.85;;
55216;SDS011;41086;46.736;15.666;2023-04-29T14:08:04;3.50;;;0.82;;
55216;SDS011;41086;46.736;15.666;2023-04-29T14:10:31;4.13;;;1.00;;
55216;SDS011;41086;46.736;15.666;2023-04-29T14:12:58;2.35;;;0.90;;
55216;SDS011;41086;46.736;15.666;2023-04-29T14:17:51;1.98;;;1.00;;
55216;SDS011;41086;46.736;15.666;2023-04-29T14:20:18;2.08;;;0.95;;
55216;SDS011;41086;46.736;15.666;2023-04-29T14:22:45;1.13;;;0.73;;
55216;SDS011;41086;46.736;15.666;2023-04-29T14:25:12;1.00;;;0.60;;
55216;SDS011;41086;46.736;15.666;2023-04-29T14:27:38;1.63;;;1.08;;
55216;SDS011;41086;46.736;15.666;2023-04-29T14:32:32;4.50;;;1.20;;
55216;SDS011;41086;46.736;15.666;2023-04-29T14:34:58;1.85;;;0.98;;
55216;SDS011;41086;46.736;15.666;2023-04-29T14:39:52;1.65;;;0.82;;
55216;SDS011;41086;46.736;15.666;2023-04-29T14:42:18;1.55;;;0.80;;
55216;SDS011;41086;46.736;15.666;2023-04-29T14:44:45;1.80;;;0.90;;
55216;SDS011;41086;46.736;15.666;2023-04-29T14:49:38;2.58;;;1.10;;
55216;SDS011;41086;46.736;15.666;2023-04-29T14:54:31;1.05;;;0.73;;
55216;SDS011;41086;46.736;15.666;2023-04-29T14:56:58;1.42;;;0.88;;
55216;SDS011;41086;46.736;15.666;2023-04-29T14:59:25;2.17;;;0.65;;
55216;SDS011;41086;46.736;15.666;2023-04-29T15:01:53;1.70;;;0.85;;
55216;SDS011;41086;46.736;15.666;2023-04-29T15:04:20;0.75;;;0.60;;
55216;SDS011;41086;46.736;15.666;2023-04-29T15:09:19;0.77;;;0.50;;
55216;SDS011;41086;46.736;15.666;2023-04-29T15:12:02;1.67;;;0.57;;
55216;SDS011;41086;46.736;15.666;2023-04-29T15:14:29;2.35;;;0.60;;
55216;SDS011;41086;46.736;15.666;2023-04-29T15:16:59;0.82;;;0.60;;
55216;SDS011;41086;46.736;15.666;2023-04-29T15:19:26;2.42;;;0.50;;
55216;SDS011;41086;46.736;15.666;2023-04-29T15:24:19;0.65;;;0.43;;
55216;SDS011;41086;46.736;15.666;2023-04-29T15:26:46;0.60;;;0.45;;
55216;SDS011;41086;46.736;15.666;2023-04-29T15:29:12;0.93;;;0.50;;
55216;SDS011;41086;46.736;15.666;2023-04-29T15:31:39;1.58;;;0.50;;
55216;SDS011;41086;46.736;15.666;2023-04-29T15:36:32;0.55;;;0.28;;
55216;SDS011;41086;46.736;15.666;2023-04-29T15:38:59;0.68;;;0.30;;
55216;SDS011;41086;46.736;15.666;2023-04-29T15:43:53;1.20;;;0.57;;
55216;SDS011;41086;46.736;15.666;2023-04-29T15:46:20;0.43;;;0.30;;
55216;SDS011;41086;46.736;15.666;2023-04-29T15:48:47;7.38;;;2.92;;